createdAt,value
2022-09-23T00:00:01.415Z,0
2022-09-23T00:05:01.301Z,0
2022-09-23T00:10:01.310Z,0
2022-09-23T00:15:01.438Z,0
2022-09-23T00:20:01.353Z,0
2022-09-23T00:25:01.338Z,0
2022-09-23T00:30:01.308Z,0
2022-09-23T00:35:01.525Z,0
2022-09-23T00:40:01.387Z,0
2022-09-23T00:45:01.323Z,0
2022-09-23T00:50:01.356Z,0
2022-09-23T00:55:01.485Z,0
2022-09-23T01:00:01.353Z,0
2022-09-23T01:05:01.348Z,0
2022-09-23T01:10:01.373Z,0
2022-09-23T01:15:01.851Z,0
2022-09-23T01:20:01.355Z,0
2022-09-23T01:25:01.393Z,0
2022-09-23T01:30:01.553Z,0
2022-09-23T01:35:01.326Z,0
2022-09-23T01:40:01.429Z,0
2022-09-23T01:45:01.630Z,0
2022-09-23T01:50:01.595Z,0
2022-09-23T01:55:01.442Z,0
2022-09-23T02:00:01.386Z,0
2022-09-23T02:05:01.647Z,0
2022-09-23T02:10:01.427Z,0
2022-09-23T02:15:01.389Z,0
2022-09-23T02:20:01.381Z,0
2022-09-23T02:25:01.576Z,0
2022-09-23T02:30:01.635Z,0
2022-09-23T02:35:01.411Z,0
2022-09-23T02:40:01.393Z,0
2022-09-23T02:45:01.591Z,0
2022-09-23T02:50:01.460Z,0
2022-09-23T02:55:01.484Z,0
2022-09-23T03:00:01.478Z,0
2022-09-23T03:05:01.631Z,0
2022-09-23T03:10:01.411Z,0
2022-09-23T03:15:01.449Z,0
2022-09-23T03:20:01.502Z,0
2022-09-23T03:25:01.711Z,0
2022-09-23T03:30:01.474Z,0
2022-09-23T03:35:01.450Z,0
2022-09-23T03:40:01.432Z,0
2022-09-23T03:45:01.759Z,0
2022-09-23T03:50:01.500Z,0
2022-09-23T03:55:01.713Z,0
2022-09-23T04:00:01.494Z,0
2022-09-23T04:05:01.655Z,0
2022-09-23T04:10:01.482Z,0
2022-09-23T04:15:01.542Z,0
2022-09-23T04:20:01.532Z,0
2022-09-23T04:25:01.691Z,0
2022-09-23T04:30:01.574Z,0
2022-09-23T04:35:01.503Z,0
2022-09-23T04:40:01.687Z,0
2022-09-23T04:45:01.685Z,0
2022-09-23T04:50:01.576Z,0
2022-09-23T04:55:01.777Z,0
2022-09-23T05:00:01.581Z,0
2022-09-23T05:05:01.664Z,0
2022-09-23T05:10:01.771Z,0
2022-09-23T05:15:01.530Z,0.20553439153439154
2022-09-23T05:20:01.551Z,0.28515343915343916
2022-09-23T05:25:01.818Z,0.276931216931217
2022-09-23T05:30:01.718Z,0.3811216931216931
2022-09-23T05:35:01.557Z,0.47657142857142853
2022-09-23T05:40:01.609Z,0.7841904761904762
2022-09-23T05:45:01.577Z,1.0803597883597884
2022-09-23T05:50:01.743Z,1.4882222222222221
2022-09-23T05:55:01.577Z,1.918835978835979
2022-09-23T06:00:01.572Z,2.2476931216931217
2022-09-23T06:05:01.656Z,2.575661375661376
2022-09-23T06:10:02.103Z,3.431693121693122
2022-09-23T06:15:01.575Z,4.204306878306879
2022-09-23T06:20:01.578Z,4.880539682539683
2022-09-23T06:25:01.603Z,5.700529100529101
2022-09-23T06:30:01.725Z,6.650994708994709
2022-09-23T06:35:01.616Z,8.190359788359789
2022-09-23T06:40:01.633Z,8.481936507936508
2022-09-23T06:45:01.626Z,8.141121693121693
2022-09-23T06:50:01.771Z,7.696677248677249
2022-09-23T06:55:01.607Z,6.964
2022-09-23T07:00:01.680Z,5.990253968253969
2022-09-23T07:05:01.714Z,4.79320634920635
2022-09-23T07:10:02.018Z,4.436772486772487
2022-09-23T07:15:01.794Z,4.66578835978836
2022-09-23T07:20:01.625Z,4.827767195767196
2022-09-23T07:25:01.645Z,5.209142857142857
2022-09-23T07:30:01.888Z,5.647492063492064
2022-09-23T07:35:02.074Z,5.544931216931217
2022-09-23T07:40:01.675Z,5.572804232804232
2022-09-23T07:45:01.661Z,6.516550264550264
2022-09-23T07:50:01.702Z,9.554486772486772
2022-09-23T07:55:02.087Z,13.862285714285715
2022-09-23T08:00:01.710Z,17.170243386243385
2022-09-23T08:05:01.681Z,20.748
2022-09-23T08:10:01.713Z,23.011735449735447
2022-09-23T08:15:01.861Z,28.39196825396826
2022-09-23T08:20:01.755Z,27.926931216931223
2022-09-23T08:25:01.727Z,28.64761904761905
2022-09-23T08:30:01.773Z,29.42826455026455
2022-09-23T08:35:01.900Z,27.317481481481483
2022-09-23T08:40:01.966Z,26.754476190476197
2022-09-23T08:45:01.720Z,22.752
2022-09-23T08:50:01.777Z,20.67225396825397
2022-09-23T08:55:01.755Z,21.531005291005293
2022-09-23T09:00:01.704Z,23.74401058201058
2022-09-23T09:05:01.763Z,29.94644444444444
2022-09-23T09:10:01.744Z,30.269587301587304
2022-09-23T09:15:01.785Z,27.579693121693122
2022-09-23T09:20:02.080Z,30.876179894179895
2022-09-23T09:25:01.817Z,37.45161904761905
2022-09-23T09:30:01.787Z,34.78088888888889
2022-09-23T09:35:01.751Z,28.319629629629627
2022-09-23T09:40:01.936Z,25.817280423280426
2022-09-23T09:45:01.787Z,27.131703703703703
2022-09-23T09:50:01.855Z,35.705322751322754
2022-09-23T09:55:01.730Z,45.63659259259259
2022-09-23T10:00:02.024Z,42.067544973544976
2022-09-23T10:05:01.725Z,41.45941798941799
2022-09-23T10:10:15.849Z,32.325280423280425
2022-09-23T10:15:01.748Z,31.197862433862433
2022-09-23T10:20:02.079Z,38.87552380952381
2022-09-23T10:25:01.746Z,44.37137566137566
2022-09-23T10:30:01.851Z,44.258708994709
2022-09-23T10:35:01.780Z,39.79638095238096
2022-09-23T10:40:01.841Z,30.71761904761905
2022-09-23T10:45:01.995Z,28.854190476190478
2022-09-23T10:50:02.818Z,33.22262433862434
2022-09-23T10:55:01.810Z,33.71954497354498
2022-09-23T11:00:01.920Z,45.43595767195768
2022-09-23T11:05:01.819Z,43.532296296296295
2022-09-23T11:10:01.798Z,37.2881164021164
2022-09-23T11:15:01.843Z,33.84230687830688
2022-09-23T11:20:01.922Z,44.40221164021164
2022-09-23T11:25:01.846Z,50.87019047619048
2022-09-23T11:30:01.905Z,53.72046560846561
2022-09-23T11:35:01.814Z,50.7641798941799
2022-09-23T11:40:01.889Z,50.390656084656094
2022-09-23T11:45:02.072Z,63.92037037037037
2022-09-23T11:50:01.893Z,64.22674074074074
2022-09-23T11:55:05.448Z,49.614211640211636
2022-09-23T12:00:02.353Z,46.72089947089947
2022-09-23T12:05:02.013Z,46.62162962962962
2022-09-23T12:25:02.089Z,41.262179894179894
2022-09-23T12:30:01.901Z,54.735936507936515
2022-09-23T12:35:01.883Z,50.59827513227514
2022-09-23T12:40:02.097Z,49.11609523809524
2022-09-23T12:45:01.963Z,46.14144973544973
2022-09-23T12:50:02.063Z,47.84347089947091
2022-09-23T12:55:01.905Z,39.91897354497355
2022-09-23T13:00:02.042Z,34.021312169312175
2022-09-23T13:05:01.923Z,38.77266666666667
2022-09-23T13:10:02.057Z,42.31401058201058
2022-09-23T13:15:02.042Z,32.11995767195767
2022-09-23T13:20:02.128Z,37.90473015873016
2022-09-23T13:25:01.934Z,34.61404232804233
2022-09-23T13:30:01.972Z,25.982021164021162
2022-09-23T13:35:02.019Z,27.136486772486773
2022-09-23T13:40:02.191Z,33.78256084656085
2022-09-23T13:45:01.948Z,25.77375661375661
2022-09-23T13:50:02.004Z,18.79784126984127
2022-09-23T13:55:02.100Z,18.02300529100529
2022-09-23T14:00:02.255Z,17.33046560846561
2022-09-23T14:05:01.963Z,15.679883597883599
2022-09-23T14:10:01.955Z,14.379026455026455
2022-09-23T14:15:02.200Z,14.808772486772487
2022-09-23T14:20:02.003Z,13.49568253968254
2022-09-23T14:25:02.099Z,15.2690582010582
2022-09-23T14:30:02.002Z,14.748582010582009
2022-09-23T14:35:02.117Z,13.728074074074076
2022-09-23T14:40:02.032Z,11.707989417989417
2022-09-23T14:45:02.047Z,9.204687830687831
2022-09-23T14:50:02.021Z,6.484984126984126
2022-09-23T14:55:02.082Z,4.729809523809523
2022-09-23T15:00:02.259Z,8.641280423280422
2022-09-23T15:05:02.027Z,12.017767195767197
2022-09-23T15:10:02.036Z,12.929534391534393
2022-09-23T15:15:02.063Z,14.178698412698413
2022-09-23T15:20:02.257Z,8.639386243386243
2022-09-23T15:25:02.044Z,5.540518518518519
2022-09-23T15:30:02.087Z,2.6502857142857144
2022-09-23T15:35:02.042Z,1.262772486772487
2022-09-23T15:40:02.235Z,1.7798306878306878
2022-09-23T15:45:02.094Z,1.8270899470899469
2022-09-23T15:50:02.093Z,2.042433862433862
2022-09-23T15:55:02.129Z,2.4225714285714286
2022-09-23T16:00:02.184Z,2.6734814814814816
2022-09-23T16:05:02.119Z,2.404656084656085
2022-09-23T16:10:02.173Z,1.7876296296296297
2022-09-23T16:15:02.118Z,1.0981587301587301
2022-09-23T16:20:02.165Z,0.4635873015873016
2022-09-23T16:25:02.392Z,0.15208465608465607
2022-09-23T16:30:02.202Z,0.25213756613756616
2022-09-23T16:35:02.112Z,0.3122751322751323
2022-09-23T16:40:02.197Z,0.27479365079365076
2022-09-23T16:45:02.284Z,0.33035978835978835
2022-09-23T16:50:02.383Z,0.2673756613756614
2022-09-23T16:55:02.128Z,0.2730793650793651
2022-09-23T17:00:02.149Z,0.05643386243386243
2022-09-23T17:05:02.276Z,0
2022-09-23T17:10:02.169Z,0
2022-09-23T17:15:02.220Z,0
2022-09-23T17:20:02.196Z,0
2022-09-23T17:25:02.204Z,0
2022-09-23T17:30:02.388Z,0
2022-09-23T17:35:02.173Z,0
2022-09-23T17:40:02.162Z,0
2022-09-23T17:45:02.188Z,0
2022-09-23T17:50:02.295Z,0
2022-09-23T17:55:02.270Z,0
2022-09-23T18:00:02.210Z,0
2022-09-23T18:05:02.303Z,0
2022-09-23T18:10:02.198Z,0
2022-09-23T18:15:02.435Z,0
2022-09-23T18:20:02.205Z,0
2022-09-23T18:25:09.382Z,0
2022-09-23T18:30:02.232Z,0
2022-09-23T18:35:02.410Z,0
2022-09-23T18:40:02.219Z,0
2022-09-23T18:45:02.238Z,0
2022-09-23T18:50:02.227Z,0
2022-09-23T18:55:02.345Z,0
2022-09-23T19:00:02.470Z,0
2022-09-23T19:05:02.287Z,0
2022-09-23T19:10:02.303Z,0
2022-09-23T19:15:02.391Z,0
2022-09-23T19:20:02.381Z,0
2022-09-23T19:25:02.301Z,0
2022-09-23T19:30:02.270Z,0
2022-09-23T19:35:02.299Z,0
2022-09-23T19:40:02.570Z,0
2022-09-23T19:45:02.460Z,0
2022-09-23T19:50:02.524Z,0
2022-09-23T19:55:02.494Z,0
2022-09-23T20:00:02.352Z,0
2022-09-23T20:05:02.502Z,0
2022-09-23T20:10:02.360Z,0
2022-09-23T20:15:02.335Z,0
2022-09-23T20:20:02.350Z,0
2022-09-23T20:25:02.446Z,0
2022-09-23T20:30:02.530Z,0
2022-09-23T20:35:02.576Z,0
2022-09-23T20:40:02.336Z,0
2022-09-23T20:45:02.370Z,0
2022-09-23T20:50:02.480Z,0
2022-09-23T20:55:02.401Z,0
2022-09-23T21:00:02.358Z,0
2022-09-23T21:05:02.363Z,0
2022-09-23T21:10:02.616Z,0
2022-09-23T21:15:02.384Z,0
2022-09-23T21:20:02.483Z,0
2022-09-23T21:25:27.205Z,0
2022-09-23T21:30:02.503Z,0
2022-09-23T21:35:02.579Z,0
2022-09-23T21:40:02.389Z,0
2022-09-23T21:45:02.399Z,0
2022-09-23T21:50:02.404Z,0
2022-09-23T21:55:02.629Z,0
2022-09-23T22:00:02.452Z,0
2022-09-23T22:05:02.394Z,0
2022-09-23T22:10:02.463Z,0
2022-09-23T22:15:02.546Z,0
2022-09-23T22:20:02.663Z,0
2022-09-23T22:25:02.432Z,0
2022-09-23T22:30:02.433Z,0
2022-09-23T22:35:02.435Z,0
2022-09-23T22:40:02.659Z,0
2022-09-23T22:45:02.411Z,0
2022-09-23T22:50:02.427Z,0
2022-09-23T22:55:02.459Z,0
2022-09-23T23:00:02.627Z,0
2022-09-23T23:05:02.475Z,0
2022-09-23T23:10:02.544Z,0
2022-09-23T23:15:02.458Z,0
2022-09-23T23:20:02.504Z,0
2022-09-23T23:25:02.809Z,0
2022-09-23T23:30:02.491Z,0
2022-09-23T23:35:02.484Z,0
2022-09-23T23:40:02.629Z,0
2022-09-23T23:45:02.712Z,0
2022-09-23T23:50:02.515Z,0
2022-09-23T23:55:02.566Z,0
